createdAt,value
2023-03-29T00:00:11.895Z,100.00
2023-03-29T00:02:39.844Z,100.00
2023-03-29T00:05:08.908Z,100.00
2023-03-29T00:07:38.018Z,100.00
2023-03-29T00:10:07.695Z,100.00
2023-03-29T00:12:35.485Z,100.00
2023-03-29T00:15:03.715Z,100.00
2023-03-29T00:17:32.418Z,100.00
2023-03-29T00:20:00.217Z,100.00
2023-03-29T00:22:27.937Z,100.00
2023-03-29T00:24:57.090Z,100.00
2023-03-29T00:27:24.755Z,100.00
2023-03-29T00:29:52.604Z,100.00
2023-03-29T00:32:20.336Z,100.00
2023-03-29T00:34:50.714Z,100.00
2023-03-29T00:37:18.721Z,100.00
2023-03-29T00:39:46.953Z,100.00
2023-03-29T00:42:17.843Z,100.00
2023-03-29T00:45:01.872Z,100.00
2023-03-29T00:47:33.747Z,100.00
2023-03-29T00:50:06.262Z,100.00
2023-03-29T00:52:34.873Z,100.00
2023-03-29T00:55:09.579Z,100.00
2023-03-29T00:57:41.227Z,100.00
2023-03-29T01:00:10.954Z,100.00
2023-03-29T01:02:41.009Z,100.00
2023-03-29T01:05:14.549Z,100.00
2023-03-29T01:07:47.952Z,100.00
2023-03-29T01:10:20.066Z,100.00
2023-03-29T01:12:52.514Z,100.00
2023-03-29T01:15:23.382Z,100.00
2023-03-29T01:17:53.624Z,100.00
2023-03-29T01:20:27.884Z,100.00
2023-03-29T01:23:14.034Z,100.00
2023-03-29T01:25:50.326Z,100.00
2023-03-29T01:28:24.168Z,100.00
2023-03-29T01:30:57.152Z,100.00
2023-03-29T01:33:29.189Z,100.00
2023-03-29T01:36:03.552Z,100.00
2023-03-29T01:38:37.816Z,100.00
2023-03-29T01:41:07.755Z,100.00
2023-03-29T01:43:44.966Z,100.00
2023-03-29T01:46:18.917Z,100.00
2023-03-29T01:48:51.807Z,100.00
2023-03-29T01:51:26.587Z,100.00
2023-03-29T01:54:00.378Z,100.00
2023-03-29T01:56:35.055Z,100.00
2023-03-29T01:59:08.296Z,100.00
2023-03-29T02:01:39.601Z,100.00
2023-03-29T02:04:11.386Z,100.00
2023-03-29T02:06:41.389Z,100.00
2023-03-29T02:09:10.007Z,100.00
2023-03-29T02:11:38.788Z,100.00
2023-03-29T02:14:07.870Z,100.00
2023-03-29T02:16:37.097Z,100.00
2023-03-29T02:19:05.716Z,100.00
2023-03-29T02:21:41.295Z,100.00
2023-03-29T02:24:15.270Z,100.00
2023-03-29T02:26:43.389Z,100.00
2023-03-29T02:29:12.538Z,100.00
2023-03-29T02:31:44.503Z,100.00
2023-03-29T02:34:21.158Z,100.00
2023-03-29T02:36:51.891Z,100.00
2023-03-29T02:39:21.650Z,100.00
2023-03-29T02:41:52.018Z,100.00
2023-03-29T02:44:25.520Z,100.00
2023-03-29T02:46:58.222Z,100.00
2023-03-29T02:49:26.288Z,100.00
2023-03-29T02:51:58.104Z,100.00
2023-03-29T02:54:29.875Z,100.00
2023-03-29T02:56:59.530Z,100.00
2023-03-29T02:59:30.813Z,100.00
2023-03-29T03:01:58.705Z,100.00
2023-03-29T03:04:29.362Z,100.00
2023-03-29T03:06:57.254Z,100.00
2023-03-29T03:09:25.092Z,100.00
2023-03-29T03:11:53.789Z,100.00
2023-03-29T03:14:23.269Z,100.00
2023-03-29T03:16:52.838Z,100.00
2023-03-29T03:19:21.159Z,100.00
2023-03-29T03:21:51.090Z,100.00
2023-03-29T03:24:18.948Z,100.00
2023-03-29T03:26:47.344Z,100.00
2023-03-29T03:29:16.235Z,100.00
2023-03-29T03:32:06.050Z,100.00
2023-03-29T03:34:48.792Z,100.00
2023-03-29T03:37:16.933Z,100.00
2023-03-29T03:39:44.715Z,100.00
2023-03-29T03:42:13.029Z,100.00
2023-03-29T03:44:44.954Z,100.00
2023-03-29T03:47:39.650Z,100.00
2023-03-29T03:50:20.490Z,100.00
2023-03-29T03:52:48.227Z,100.00
2023-03-29T03:55:16.434Z,100.00
2023-03-29T03:58:04.750Z,100.00
2023-03-29T04:00:33.296Z,100.00
2023-03-29T04:03:20.387Z,100.00
2023-03-29T04:05:48.913Z,100.00
2023-03-29T04:08:19.056Z,100.00
2023-03-29T04:11:09.165Z,100.00
2023-03-29T04:13:38.971Z,100.00
2023-03-29T04:16:27.599Z,100.00
2023-03-29T04:18:57.961Z,100.00
2023-03-29T04:21:26.123Z,100.00
2023-03-29T04:23:53.960Z,100.00
2023-03-29T04:26:22.954Z,100.00
2023-03-29T04:28:57.089Z,100.00
2023-03-29T04:31:47.613Z,100.00
2023-03-29T04:34:43.802Z,100.00
2023-03-29T04:37:11.836Z,100.00
2023-03-29T04:39:41.014Z,100.00
2023-03-29T04:42:09.546Z,100.00
2023-03-29T04:44:37.765Z,100.00
2023-03-29T04:47:10.958Z,100.00
2023-03-29T04:49:46.429Z,100.00
2023-03-29T04:52:24.373Z,100.00
2023-03-29T04:54:52.819Z,100.00
2023-03-29T04:57:25.805Z,100.00
2023-03-29T04:59:53.638Z,100.00
2023-03-29T05:02:39.992Z,100.00
2023-03-29T05:05:09.639Z,100.00
2023-03-29T05:07:37.776Z,100.00
2023-03-29T05:10:06.622Z,100.00
2023-03-29T05:12:36.635Z,100.00
2023-03-29T05:15:04.697Z,100.00
2023-03-29T05:17:33.550Z,100.00
2023-03-29T05:20:11.660Z,100.00
2023-03-29T05:22:40.272Z,100.00
2023-03-29T05:25:13.316Z,100.00
2023-03-29T05:27:43.226Z,100.00
2023-03-29T05:30:13.306Z,100.00
2023-03-29T05:32:49.528Z,100.00
2023-03-29T05:35:24.300Z,100.00
2023-03-29T05:37:52.184Z,100.00
2023-03-29T05:40:20.256Z,100.00
2023-03-29T05:43:07.419Z,100.00
2023-03-29T05:45:35.403Z,100.00
2023-03-29T05:48:04.019Z,100.00
2023-03-29T05:50:33.647Z,100.00
2023-03-29T05:53:01.693Z,100.00
2023-03-29T05:55:29.507Z,100.00
2023-03-29T05:57:57.401Z,100.00
2023-03-29T06:00:31.928Z,100.00
2023-03-29T06:05:49.791Z,100.00
2023-03-29T06:08:18.310Z,100.00
2023-03-29T06:11:11.161Z,100.00
2023-03-29T06:14:13.379Z,100.00
2023-03-29T06:16:47.055Z,100.00
2023-03-29T06:19:15.951Z,100.00
2023-03-29T06:21:45.581Z,100.00
2023-03-29T06:24:16.758Z,100.00
2023-03-29T06:26:52.291Z,100.00
2023-03-29T06:29:20.297Z,100.00
2023-03-29T06:31:49.223Z,100.00
2023-03-29T06:34:38.069Z,100.00
2023-03-29T06:37:49.437Z,100.00
2023-03-29T06:40:40.343Z,100.00
2023-03-29T06:43:08.339Z,100.00
2023-03-29T06:45:48.702Z,100.00
2023-03-29T06:48:26.351Z,100.00
2023-03-29T06:50:54.656Z,100.00
2023-03-29T06:53:28.153Z,100.00
2023-03-29T06:56:05.149Z,100.00
2023-03-29T06:58:54.662Z,100.00
2023-03-29T07:01:45.116Z,100.00
2023-03-29T07:04:35.498Z,100.00
2023-03-29T07:07:22.667Z,100.00
2023-03-29T07:09:58.415Z,100.00
2023-03-29T07:12:26.428Z,100.00
2023-03-29T07:14:58.965Z,100.00
2023-03-29T07:17:46.855Z,100.00
2023-03-29T07:20:14.964Z,100.00
2023-03-29T07:22:48.180Z,100.00
2023-03-29T07:25:18.727Z,100.00
2023-03-29T07:27:47.210Z,100.00
2023-03-29T07:30:17.898Z,100.00
2023-03-29T07:32:47.288Z,100.00
2023-03-29T07:35:33.818Z,100.00
2023-03-29T07:38:02.826Z,100.00
2023-03-29T07:40:32.410Z,100.00
2023-03-29T07:43:00.148Z,100.00
2023-03-29T07:45:31.953Z,100.00
2023-03-29T07:48:11.908Z,100.00
2023-03-29T07:50:50.808Z,100.00
2023-03-29T07:53:23.033Z,100.00
2023-03-29T07:55:54.876Z,100.00
2023-03-29T07:58:42.919Z,100.00
2023-03-29T08:01:17.982Z,100.00
2023-03-29T08:04:06.051Z,100.00
2023-03-29T08:06:52.965Z,100.00
2023-03-29T08:09:22.449Z,100.00
2023-03-29T08:11:51.905Z,100.00
2023-03-29T08:14:28.756Z,100.00
2023-03-29T08:17:16.870Z,100.00
2023-03-29T08:19:51.230Z,100.00
2023-03-29T08:22:22.968Z,100.00
2023-03-29T08:25:16.883Z,100.00
2023-03-29T08:27:50.027Z,99.45
2023-03-29T08:30:27.776Z,100.00
2023-03-29T08:32:57.202Z,99.12
2023-03-29T08:35:25.251Z,100.00
2023-03-29T08:38:14.913Z,100.00
2023-03-29T08:40:42.930Z,95.86
2023-03-29T08:43:56.354Z,96.78
2023-03-29T08:46:39.675Z,98.49
2023-03-29T08:49:22.225Z,98.21
2023-03-29T08:51:55.851Z,99.32
2023-03-29T08:54:27.112Z,100.00
2023-03-29T08:57:29.589Z,100.00
2023-03-29T09:00:10.650Z,100.00
2023-03-29T09:02:42.205Z,100.00
2023-03-29T09:05:20.491Z,100.00
2023-03-29T09:08:01.019Z,100.00
2023-03-29T09:10:37.873Z,100.00
2023-03-29T09:13:19.884Z,100.00
2023-03-29T09:15:55.685Z,96.45
2023-03-29T09:18:41.315Z,94.93
2023-03-29T09:21:18.749Z,95.08
2023-03-29T09:24:04.460Z,93.90
2023-03-29T09:26:48.952Z,92.83
2023-03-29T09:29:46.254Z,89.50
2023-03-29T09:32:22.342Z,90.54
2023-03-29T09:35:07.318Z,85.68
2023-03-29T09:37:40.386Z,86.20
2023-03-29T09:40:14.156Z,84.90
2023-03-29T09:42:56.416Z,84.08
2023-03-29T09:45:24.979Z,80.76
2023-03-29T09:47:58.349Z,80.89
2023-03-29T09:50:33.997Z,80.37
2023-03-29T09:53:05.673Z,77.25
2023-03-29T09:55:40.582Z,77.56
2023-03-29T09:58:25.577Z,73.84
2023-03-29T10:00:58.093Z,75.12
2023-03-29T10:03:29.500Z,74.30
2023-03-29T10:06:08.623Z,70.75
2023-03-29T10:08:40.634Z,73.02
2023-03-29T10:11:14.406Z,71.24
2023-03-29T10:13:47.143Z,66.72
2023-03-29T10:16:21.878Z,69.91
2023-03-29T10:18:51.872Z,69.74
2023-03-29T10:21:21.221Z,67.93
2023-03-29T10:23:51.426Z,68.42
2023-03-29T10:26:25.961Z,67.75
2023-03-29T10:28:57.169Z,67.64
2023-03-29T10:31:26.171Z,70.30
2023-03-29T10:33:57.701Z,71.06
2023-03-29T10:36:28.452Z,69.91
2023-03-29T10:39:00.217Z,67.30
2023-03-29T10:41:30.664Z,68.15
2023-03-29T10:43:59.829Z,66.89
2023-03-29T10:46:30.585Z,66.86
2023-03-29T10:49:03.035Z,60.91
2023-03-29T10:51:31.128Z,63.94
2023-03-29T10:53:59.504Z,62.75
2023-03-29T10:56:39.127Z,61.44
2023-03-29T10:59:21.585Z,58.85
2023-03-29T11:02:03.766Z,53.28
2023-03-29T11:04:43.800Z,50.57
2023-03-29T11:07:29.625Z,52.16
2023-03-29T11:10:06.739Z,51.41
2023-03-29T11:12:41.668Z,50.40
2023-03-29T11:15:23.460Z,49.61
2023-03-29T11:18:02.166Z,48.10
2023-03-29T11:20:38.662Z,47.62
2023-03-29T11:23:20.696Z,48.00
2023-03-29T11:25:58.658Z,44.33
2023-03-29T11:28:35.315Z,48.83
2023-03-29T11:31:11.563Z,50.69
2023-03-29T11:33:54.184Z,46.85
2023-03-29T11:36:30.658Z,45.40
2023-03-29T11:39:09.491Z,45.96
2023-03-29T11:41:42.243Z,44.69
2023-03-29T11:44:16.413Z,41.22
2023-03-29T11:46:49.358Z,39.21
2023-03-29T11:49:22.464Z,39.95
2023-03-29T11:51:57.790Z,42.38
2023-03-29T11:54:31.894Z,41.33
2023-03-29T11:57:03.370Z,42.37
2023-03-29T11:59:36.822Z,41.53
2023-03-29T12:02:13.456Z,43.67
2023-03-29T12:04:47.601Z,46.39
2023-03-29T12:07:20.899Z,50.02
2023-03-29T12:09:53.557Z,50.03
2023-03-29T12:12:27.117Z,49.28
2023-03-29T12:15:02.072Z,48.68
2023-03-29T12:17:33.241Z,49.60
2023-03-29T12:20:09.545Z,50.04
2023-03-29T12:22:41.907Z,50.41
2023-03-29T12:25:18.787Z,48.91
2023-03-29T12:27:56.957Z,48.18
2023-03-29T12:30:39.891Z,47.76
2023-03-29T12:33:31.902Z,48.91
2023-03-29T12:36:38.643Z,50.83
2023-03-29T12:39:30.624Z,51.24
2023-03-29T12:42:20.339Z,57.18
2023-03-29T12:45:14.961Z,58.65
2023-03-29T12:47:47.173Z,55.87
2023-03-29T12:50:28.560Z,63.73
2023-03-29T12:53:08.835Z,65.77
2023-03-29T12:55:51.271Z,61.21
2023-03-29T12:58:42.702Z,62.82
2023-03-29T13:01:22.912Z,58.99
2023-03-29T13:03:53.226Z,61.59
2023-03-29T13:06:33.040Z,60.58
2023-03-29T13:09:03.338Z,63.71
2023-03-29T13:11:35.819Z,64.86
2023-03-29T13:14:14.430Z,63.69
2023-03-29T13:16:42.757Z,65.57
2023-03-29T13:19:26.885Z,67.55
2023-03-29T13:22:09.737Z,67.09
2023-03-29T13:25:01.270Z,68.61
2023-03-29T13:27:42.200Z,68.03
2023-03-29T13:30:32.233Z,65.91
2023-03-29T13:33:16.669Z,72.40
2023-03-29T13:35:49.963Z,71.30
2023-03-29T13:38:23.673Z,74.83
2023-03-29T13:41:03.189Z,76.75
2023-03-29T13:43:35.388Z,80.28
2023-03-29T13:46:23.196Z,81.01
2023-03-29T13:48:56.093Z,78.77
2023-03-29T13:51:38.704Z,79.65
2023-03-29T13:54:19.886Z,77.89
2023-03-29T13:56:59.171Z,76.99
2023-03-29T13:59:35.035Z,77.84
2023-03-29T14:02:05.799Z,79.05
2023-03-29T14:04:41.845Z,82.58
2023-03-29T14:07:13.524Z,91.40
2023-03-29T14:09:44.909Z,100.00
2023-03-29T14:12:15.703Z,100.00
2023-03-29T14:14:59.510Z,100.00
2023-03-29T14:17:28.164Z,100.00
2023-03-29T14:19:58.925Z,100.00
2023-03-29T14:22:32.263Z,100.00
2023-03-29T14:25:04.612Z,100.00
2023-03-29T14:27:33.171Z,100.00
2023-03-29T14:30:02.251Z,100.00
2023-03-29T14:32:31.989Z,100.00
2023-03-29T14:35:01.778Z,100.00
2023-03-29T14:37:30.022Z,100.00
2023-03-29T14:40:00.130Z,100.00
2023-03-29T14:42:30.164Z,100.00
2023-03-29T14:45:02.330Z,100.00
2023-03-29T14:47:33.117Z,100.00
2023-03-29T14:50:01.714Z,99.17
2023-03-29T14:52:31.191Z,93.35
2023-03-29T14:55:01.839Z,93.91
2023-03-29T14:57:35.390Z,98.64
2023-03-29T15:00:16.192Z,95.17
2023-03-29T15:02:54.375Z,96.32
2023-03-29T15:05:31.792Z,97.84
2023-03-29T15:08:00.046Z,97.50
2023-03-29T15:10:27.890Z,93.83
2023-03-29T15:12:57.215Z,95.04
2023-03-29T15:15:26.391Z,95.98
2023-03-29T15:17:58.359Z,97.13
2023-03-29T15:20:28.732Z,96.11
2023-03-29T15:23:00.439Z,98.35
2023-03-29T15:25:33.139Z,98.58
2023-03-29T15:28:01.805Z,98.41
2023-03-29T15:30:34.873Z,95.51
2023-03-29T15:33:20.287Z,93.04
2023-03-29T15:35:51.482Z,91.48
2023-03-29T15:38:21.741Z,90.04
2023-03-29T15:40:51.489Z,87.85
2023-03-29T15:43:19.726Z,91.44
2023-03-29T15:45:48.450Z,89.39
2023-03-29T15:48:22.560Z,88.66
2023-03-29T15:50:51.527Z,86.96
2023-03-29T15:53:20.738Z,90.83
2023-03-29T15:55:51.397Z,88.42
2023-03-29T15:58:27.086Z,85.20
2023-03-29T16:00:59.079Z,86.74
2023-03-29T16:03:28.475Z,88.38
2023-03-29T16:05:56.996Z,90.58
2023-03-29T16:08:25.455Z,92.38
2023-03-29T16:10:53.265Z,92.21
2023-03-29T16:13:21.028Z,94.82
2023-03-29T16:15:48.801Z,92.86
2023-03-29T16:18:16.489Z,93.76
2023-03-29T16:20:45.848Z,93.97
2023-03-29T16:23:13.573Z,91.95
2023-03-29T16:25:41.534Z,89.13
2023-03-29T16:28:10.185Z,91.91
2023-03-29T16:30:38.972Z,91.73
2023-03-29T16:33:08.591Z,93.45
2023-03-29T16:35:39.826Z,96.68
2023-03-29T16:38:09.745Z,97.32
2023-03-29T16:40:38.459Z,94.86
2023-03-29T16:43:06.513Z,94.42
2023-03-29T16:45:34.228Z,98.03
2023-03-29T16:48:02.507Z,99.91
2023-03-29T16:50:30.650Z,100.00
2023-03-29T16:52:58.368Z,98.76
2023-03-29T16:55:29.827Z,98.88
2023-03-29T16:57:57.507Z,100.00
2023-03-29T17:00:28.342Z,100.00
2023-03-29T17:02:56.587Z,99.94
2023-03-29T17:05:25.324Z,100.00
2023-03-29T17:07:53.047Z,100.00
2023-03-29T17:10:21.871Z,100.00
2023-03-29T17:12:51.174Z,100.00
2023-03-29T17:15:18.897Z,98.20
2023-03-29T17:17:46.683Z,100.00
2023-03-29T17:20:14.498Z,100.00
2023-03-29T17:22:42.698Z,100.00
2023-03-29T17:25:11.163Z,100.00
2023-03-29T17:27:38.986Z,100.00
2023-03-29T17:30:09.352Z,100.00
2023-03-29T17:32:37.328Z,100.00
2023-03-29T17:35:05.752Z,100.00
2023-03-29T17:37:33.588Z,100.00
2023-03-29T17:40:07.035Z,100.00
2023-03-29T17:42:36.216Z,100.00
2023-03-29T17:45:04.060Z,100.00
2023-03-29T17:47:33.196Z,100.00
2023-03-29T17:50:01.037Z,100.00
2023-03-29T17:52:28.772Z,100.00
2023-03-29T17:54:59.490Z,100.00
2023-03-29T17:57:27.301Z,100.00
2023-03-29T17:59:55.344Z,100.00
2023-03-29T18:02:25.367Z,100.00
2023-03-29T18:04:54.839Z,100.00
2023-03-29T18:07:22.536Z,100.00
2023-03-29T18:09:51.731Z,100.00
2023-03-29T18:12:19.445Z,100.00
2023-03-29T18:14:47.539Z,100.00
2023-03-29T18:17:15.923Z,100.00
2023-03-29T18:19:43.884Z,100.00
2023-03-29T18:22:13.244Z,100.00
2023-03-29T18:24:41.008Z,100.00
2023-03-29T18:27:08.744Z,100.00
2023-03-29T18:29:36.481Z,100.00
2023-03-29T18:32:04.627Z,100.00
2023-03-29T18:34:33.414Z,100.00
2023-03-29T18:37:01.256Z,100.00
2023-03-29T18:39:31.945Z,100.00
2023-03-29T18:41:59.682Z,100.00
2023-03-29T18:44:28.248Z,100.00
2023-03-29T18:46:56.251Z,100.00
2023-03-29T18:49:24.992Z,100.00
2023-03-29T18:51:54.245Z,100.00
2023-03-29T18:54:22.261Z,100.00
2023-03-29T18:56:51.484Z,100.00
2023-03-29T18:59:19.358Z,100.00
2023-03-29T19:01:47.329Z,100.00
2023-03-29T19:04:15.347Z,100.00
2023-03-29T19:06:43.216Z,100.00
2023-03-29T19:09:10.973Z,100.00
2023-03-29T19:11:38.698Z,100.00
2023-03-29T19:14:09.173Z,100.00
2023-03-29T19:16:37.134Z,100.00
2023-03-29T19:19:06.611Z,100.00
2023-03-29T19:21:34.402Z,100.00
2023-03-29T19:24:05.014Z,100.00
2023-03-29T19:26:34.126Z,100.00
2023-03-29T19:29:01.941Z,100.00
2023-03-29T19:31:31.685Z,100.00
2023-03-29T19:33:59.528Z,100.00
2023-03-29T19:36:28.346Z,100.00
2023-03-29T19:38:56.119Z,100.00
2023-03-29T19:41:23.912Z,100.00
2023-03-29T19:43:51.638Z,100.00
2023-03-29T19:46:20.353Z,100.00
2023-03-29T19:48:49.603Z,100.00
2023-03-29T19:51:17.358Z,100.00
2023-03-29T19:53:45.254Z,100.00
2023-03-29T19:56:14.533Z,100.00
2023-03-29T19:58:43.038Z,100.00
2023-03-29T20:01:10.800Z,100.00
2023-03-29T20:03:39.485Z,100.00
2023-03-29T20:06:10.321Z,100.00
2023-03-29T20:08:38.805Z,100.00
2023-03-29T20:11:10.217Z,100.00
2023-03-29T20:13:39.185Z,100.00
2023-03-29T20:16:08.419Z,100.00
2023-03-29T20:18:38.245Z,100.00
2023-03-29T20:21:06.804Z,100.00
2023-03-29T20:23:37.015Z,100.00
2023-03-29T20:26:04.775Z,100.00
2023-03-29T20:28:32.514Z,100.00
2023-03-29T20:31:04.712Z,100.00
2023-03-29T20:33:32.709Z,100.00
2023-03-29T20:36:00.533Z,100.00
2023-03-29T20:38:28.352Z,100.00
2023-03-29T20:40:57.460Z,100.00
2023-03-29T20:43:25.143Z,100.00
2023-03-29T20:45:54.255Z,100.00
2023-03-29T20:48:23.185Z,100.00
2023-03-29T20:50:52.244Z,100.00
2023-03-29T20:53:21.126Z,100.00
2023-03-29T20:55:48.949Z,100.00
2023-03-29T20:58:18.311Z,100.00
2023-03-29T21:00:46.862Z,100.00
2023-03-29T21:03:14.847Z,100.00
2023-03-29T21:05:43.295Z,100.00
2023-03-29T21:08:11.684Z,100.00
2023-03-29T21:10:42.344Z,100.00
2023-03-29T21:13:10.039Z,100.00
2023-03-29T21:15:40.661Z,100.00
2023-03-29T21:18:08.769Z,100.00
2023-03-29T21:20:37.690Z,100.00
2023-03-29T21:23:05.858Z,100.00
2023-03-29T21:25:33.590Z,100.00
2023-03-29T21:28:01.398Z,100.00
2023-03-29T21:30:31.905Z,100.00
2023-03-29T21:33:01.538Z,100.00
2023-03-29T21:35:29.402Z,100.00
2023-03-29T21:37:57.086Z,100.00
2023-03-29T21:40:24.869Z,100.00
2023-03-29T21:42:52.572Z,100.00
2023-03-29T21:45:20.502Z,100.00
2023-03-29T21:47:48.349Z,100.00
2023-03-29T21:50:17.479Z,100.00
2023-03-29T21:52:45.434Z,100.00
2023-03-29T21:55:13.328Z,100.00
2023-03-29T21:57:41.432Z,100.00
2023-03-29T22:00:12.594Z,100.00
2023-03-29T22:02:41.314Z,100.00
2023-03-29T22:05:09.628Z,100.00
2023-03-29T22:07:39.552Z,100.00
2023-03-29T22:10:09.190Z,100.00
2023-03-29T22:12:38.502Z,100.00
2023-03-29T22:15:07.754Z,100.00
2023-03-29T22:17:36.260Z,100.00
2023-03-29T22:20:13.762Z,100.00
2023-03-29T22:22:45.641Z,100.00
2023-03-29T22:25:14.184Z,100.00
2023-03-29T22:27:43.470Z,100.00
2023-03-29T22:30:12.641Z,100.00
2023-03-29T22:32:40.475Z,100.00
2023-03-29T22:35:08.999Z,100.00
2023-03-29T22:37:42.858Z,100.00
2023-03-29T22:40:12.388Z,100.00
2023-03-29T22:42:40.073Z,100.00
2023-03-29T22:45:09.292Z,100.00
2023-03-29T22:47:37.102Z,100.00
2023-03-29T22:50:07.230Z,100.00
2023-03-29T22:52:34.894Z,100.00
2023-03-29T22:55:04.073Z,100.00
2023-03-29T22:57:31.849Z,100.00
2023-03-29T22:59:59.543Z,100.00
2023-03-29T23:02:27.281Z,100.00
2023-03-29T23:04:54.938Z,100.00
2023-03-29T23:07:22.613Z,100.00
2023-03-29T23:09:50.508Z,100.00
2023-03-29T23:12:19.564Z,100.00
2023-03-29T23:14:47.214Z,99.34
2023-03-29T23:17:19.299Z,98.57
2023-03-29T23:19:47.899Z,96.15
2023-03-29T23:22:15.881Z,96.62
2023-03-29T23:24:47.241Z,93.62
2023-03-29T23:27:15.342Z,93.68
2023-03-29T23:29:45.208Z,91.78
2023-03-29T23:32:14.122Z,91.52
2023-03-29T23:34:41.918Z,90.97
2023-03-29T23:37:09.652Z,88.11
2023-03-29T23:39:37.313Z,88.86
2023-03-29T23:42:05.227Z,89.86
2023-03-29T23:44:32.914Z,100.00
2023-03-29T23:47:01.960Z,100.00
2023-03-29T23:49:30.073Z,100.00
2023-03-29T23:51:59.967Z,100.00
2023-03-29T23:54:29.118Z,100.00
2023-03-29T23:56:56.829Z,100.00
2023-03-29T23:59:28.790Z,100.00
